Time;durP1;ratioP1;P1;durP2;ratioP2;P2;SDS_P1;SDS_P2;PMS_P1;PMS_P2;Temp;Humidity;BMP_temperature;BMP_pressure;BME280_temperature;BME280_humidity;BME280_pressure;Samples;Min_cycle;Max_cycle;Signal;HPM_P1;HPM_P2
2022/10/20 00:01:26;;;;;;;7.78;4.47;;;;;;;4.50;90.49;102118.81;7396398;19;20023;-67
2022/10/20 00:03:55;;;;;;;5.28;4.13;;;;;;;4.48;90.56;102112.72;7398956;19;20029;-68
2022/10/20 00:06:26;;;;;;;6.40;4.50;;;;;;;4.43;90.66;102103.94;7398453;19;20018;-68
2022/10/20 00:08:59;;;;;;;7.40;4.20;;;;;;;4.42;90.79;102102.19;7398726;19;20015;-69
2022/10/20 00:11:29;;;;;;;4.90;3.58;;;;;;;4.40;90.79;102110.81;7396054;19;20018;-68
2022/10/20 00:13:59;;;;;;;6.43;4.45;;;;;;;4.38;90.92;102103.81;7398168;19;20078;-68
2022/10/20 00:16:29;;;;;;;6.30;4.35;;;;;;;4.37;90.66;102108.16;7397756;19;20477;-68
2022/10/20 00:18:58;;;;;;;5.35;3.88;;;;;;;4.36;90.90;102101.19;7396513;19;20423;-69
2022/10/20 00:21:29;;;;;;;7.30;4.15;;;;;;;4.35;90.77;102104.63;7396110;19;20039;-69
2022/10/20 00:24:06;;;;;;;7.65;4.43;;;;;;;4.34;90.79;102108.03;7398197;19;20082;-68
2022/10/20 00:26:35;;;;;;;4.70;3.70;;;;;;;4.33;90.79;102106.28;7397441;19;20485;-68
2022/10/20 00:29:04;;;;;;;6.40;4.65;;;;;;;4.31;91.11;102099.28;7395694;19;20081;-68
2022/10/20 00:31:33;;;;;;;5.53;4.05;;;;;;;4.30;91.13;102102.75;7393750;19;20499;-68
2022/10/20 00:34:02;;;;;;;3.80;3.20;;;;;;;4.29;91.03;102101.84;7395686;19;20035;-68
2022/10/20 00:36:30;;;;;;;6.13;4.00;;;;;;;4.27;91.06;102092.25;7397520;19;20018;-68
2022/10/20 00:39:01;;;;;;;5.47;3.28;;;;;;;4.26;91.23;102088.81;7397021;19;20031;-69
2022/10/20 00:41:33;;;;;;;4.68;3.28;;;;;;;4.24;91.02;102087.88;7395617;19;20062;-69
2022/10/20 00:44:03;;;;;;;5.65;3.50;;;;;;;4.23;91.28;102083.50;7397587;19;20023;-69
2022/10/20 00:46:38;;;;;;;4.32;3.83;;;;;;;4.22;91.41;102081.75;7397710;19;20081;-69
2022/10/20 00:49:14;;;;;;;3.75;3.30;;;;;;;4.21;91.26;102087.81;7396676;19;20511;-69
2022/10/20 00:51:43;;;;;;;6.72;3.58;;;;;;;4.16;91.22;102090.28;7395289;19;20066;-69
2022/10/20 00:54:16;;;;;;;4.32;3.55;;;;;;;4.18;91.23;102091.22;7396886;19;20039;-69
2022/10/20 00:56:49;;;;;;;4.88;3.60;;;;;;;4.17;91.56;102088.53;7397315;19;20036;-69
2022/10/20 00:59:29;;;;;;;6.95;3.65;;;;;;;4.16;91.59;102086.81;7394284;19;20014;-69
2022/10/20 01:01:59;;;;;;;4.55;3.88;;;;;;;4.15;91.50;102079.84;7395582;19;20014;-69
2022/10/20 01:04:31;;;;;;;4.53;4.03;;;;;;;4.12;91.53;102074.56;7396465;19;20032;-69
2022/10/20 01:07:00;;;;;;;5.18;3.70;;;;;;;4.13;91.58;102073.72;7396925;19;20028;-69
2022/10/20 01:09:28;;;;;;;7.10;4.03;;;;;;;4.10;91.64;102066.72;7395699;19;20380;-69
2022/10/20 01:12:09;;;;;;;4.88;3.78;;;;;;;4.11;91.52;102070.19;7395957;19;20025;-69
2022/10/20 01:14:46;;;;;;;5.25;4.68;;;;;;;4.08;91.50;102051.13;7397443;19;20421;-68
2022/10/20 01:17:25;;;;;;;5.47;4.20;;;;;;;4.06;91.47;102057.09;7394810;19;20014;-68
2022/10/20 01:20:31;;;;;;;5.15;4.13;;;;;;;4.04;91.88;102057.06;7395968;19;20082;-67
2022/10/20 01:23:25;;;;;;;5.22;3.78;;;;;;;4.03;91.70;102055.31;7394165;19;20426;-68
2022/10/20 01:26:10;;;;;;;7.32;4.38;;;;;;;4.02;91.78;102045.75;7395756;19;20022;-68
2022/10/20 01:28:46;;;;;;;6.35;4.10;;;;;;;4.00;91.71;102050.03;7396275;19;20035;-68
2022/10/20 01:31:23;;;;;;;7.18;3.97;;;;;;;3.99;91.86;102047.38;7394539;19;20031;-68
2022/10/20 01:33:59;;;;;;;4.88;3.63;;;;;;;3.97;91.88;102044.75;7393752;19;20451;-68
2022/10/20 01:36:33;;;;;;;5.40;3.83;;;;;;;3.94;91.80;102042.06;7396059;19;20035;-68
2022/10/20 01:39:05;;;;;;;8.38;3.92;;;;;;;3.93;92.05;102037.72;7396089;19;20018;-68
2022/10/20 01:41:40;;;;;;;6.25;4.05;;;;;;;3.93;91.93;102040.34;7392992;19;20019;-68
2022/10/20 01:44:14;;;;;;;6.68;3.90;;;;;;;3.90;92.14;102028.16;7394074;19;20035;-68
2022/10/20 01:46:44;;;;;;;5.97;4.15;;;;;;;3.91;91.95;102023.81;7395752;19;20027;-68
2022/10/20 01:49:14;;;;;;;5.47;3.60;;;;;;;3.90;91.99;102014.25;7393954;19;20028;-67
2022/10/20 01:51:43;;;;;;;9.55;3.95;;;;;;;3.89;92.16;102009.91;7392930;19;20070;-68
2022/10/20 01:54:23;;;;;;;4.95;3.78;;;;;;;3.88;92.19;102000.34;7395241;19;20022;-68
2022/10/20 01:57:08;;;;;;;4.10;3.53;;;;;;;3.87;92.08;101999.50;7395404;19;20022;-68
2022/10/20 01:59:50;;;;;;;5.65;3.80;;;;;;;3.85;92.40;101997.69;7392895;19;20091;-68
2022/10/20 02:02:43;;;;;;;6.03;3.40;;;;;;;3.82;92.19;102006.28;7394135;19;20015;-67
2022/10/20 02:05:25;;;;;;;4.20;3.42;;;;;;;3.83;92.33;102004.53;7392748;19;20014;-67
2022/10/20 02:07:57;;;;;;;4.82;3.90;;;;;;;3.82;92.17;102000.22;7394478;19;20477;-67
2022/10/20 02:10:31;;;;;;;4.28;3.88;;;;;;;3.79;92.41;101998.44;7393406;19;20035;-68
2022/10/20 02:13:05;;;;;;;6.13;4.43;;;;;;;3.78;92.36;102000.94;7395809;19;20026;-67
2022/10/20 02:15:40;;;;;;;6.53;3.88;;;;;;;3.75;92.12;101991.38;7394146;19;20027;-66
2022/10/20 02:18:11;;;;;;;6.45;4.18;;;;;;;3.74;92.41;101995.69;7395888;19;20043;-67
2022/10/20 02:20:44;;;;;;;7.35;4.20;;;;;;;3.71;92.55;101984.34;7392092;19;20031;-68
2022/10/20 02:23:13;;;;;;;8.25;4.38;;;;;;;3.70;92.53;101970.50;7393001;19;20026;-68
2022/10/20 02:25:43;;;;;;;7.40;3.88;;;;;;;3.69;92.41;101968.75;7393986;19;20443;-67
2022/10/20 02:28:14;;;;;;;6.20;4.47;;;;;;;3.68;92.51;101963.50;7393738;19;20035;-69
2022/10/20 02:30:47;;;;;;;4.57;3.83;;;;;;;3.67;92.54;101967.81;7392661;19;20374;-68
2022/10/20 02:33:17;;;;;;;4.80;4.05;;;;;;;3.65;92.68;101964.31;7391732;19;20019;-66
2022/10/20 02:35:52;;;;;;;6.00;4.50;;;;;;;3.64;92.54;101965.16;7393815;19;20375;-68
2022/10/20 02:38:21;;;;;;;5.10;4.10;;;;;;;3.62;92.70;101964.22;7391851;19;20018;-67
2022/10/20 02:40:49;;;;;;;7.47;4.30;;;;;;;3.60;92.45;101963.28;7392487;19;20018;-67
2022/10/20 02:43:18;;;;;;;5.75;4.10;;;;;;;3.57;92.55;101964.09;7392027;19;20097;-67
2022/10/20 02:45:49;;;;;;;6.47;3.97;;;;;;;3.55;92.68;101959.69;7391346;19;20436;-67
2022/10/20 02:48:17;;;;;;;5.05;4.55;;;;;;;3.53;92.56;101958.78;7392115;19;20018;-67
2022/10/20 02:50:46;;;;;;;5.45;4.35;;;;;;;3.49;92.49;101957.81;7392437;19;20022;-68
2022/10/20 02:53:14;;;;;;;5.63;4.35;;;;;;;3.47;92.73;101966.41;7393168;19;20014;-68
2022/10/20 02:55:43;;;;;;;5.65;4.40;;;;;;;3.41;92.60;101949.84;7400916;19;20018;-67
2022/10/20 02:58:12;;;;;;;4.97;4.40;;;;;;;3.40;92.37;101953.25;7399404;19;20360;-67
2022/10/20 03:00:41;;;;;;;4.82;3.72;;;;;;;3.37;92.49;101955.75;7399359;19;20019;-68
2022/10/20 03:03:12;;;;;;;6.63;4.55;;;;;;;3.33;92.53;101946.13;7398183;19;20507;-66
2022/10/20 03:05:43;;;;;;;9.13;4.05;;;;;;;3.31;92.52;101950.44;7400980;19;20018;-67
2022/10/20 03:08:11;;;;;;;6.35;4.05;;;;;;;3.29;92.65;101933.06;7398370;19;20011;-68
2022/10/20 03:10:40;;;;;;;5.38;4.63;;;;;;;3.25;92.54;101932.09;7398329;19;20022;-68
2022/10/20 03:13:09;;;;;;;5.32;4.28;;;;;;;3.21;92.46;101927.63;7397698;19;20014;-68
2022/10/20 03:15:38;;;;;;;4.47;4.07;;;;;;;3.18;92.57;101919.78;7400246;19;20014;-68
2022/10/20 03:18:06;;;;;;;4.75;4.05;;;;;;;3.17;92.32;101923.22;7399531;19;20031;-67
2022/10/20 03:20:37;;;;;;;5.35;4.18;;;;;;;3.14;92.58;101924.00;7398491;19;20029;-68
2022/10/20 03:23:06;;;;;;;5.22;3.90;;;;;;;3.13;92.33;101921.38;7398736;19;20039;-67
2022/10/20 03:25:35;;;;;;;7.25;4.43;;;;;;;3.12;92.61;101922.22;7399376;19;20035;-68
2022/10/20 03:28:03;;;;;;;7.32;5.28;;;;;;;3.10;92.30;101919.59;7397258;19;20014;-68
2022/10/20 03:30:32;;;;;;;4.90;4.35;;;;;;;3.09;92.50;101918.69;7398354;19;20406;-67
2022/10/20 03:33:00;;;;;;;6.70;4.43;;;;;;;3.08;92.36;101923.84;7397744;19;20418;-68
2022/10/20 03:35:29;;;;;;;7.35;5.30;;;;;;;3.07;92.38;101916.88;7399466;19;20031;-68
2022/10/20 03:38:00;;;;;;;8.82;6.80;;;;;;;3.07;92.63;101911.69;7396612;19;20481;-67
2022/10/20 03:40:28;;;;;;;7.55;5.70;;;;;;;3.07;92.61;101922.06;7398085;19;20023;-68
2022/10/20 03:42:57;;;;;;;8.25;5.90;;;;;;;3.07;92.56;101922.97;7397795;19;20019;-67
2022/10/20 03:45:25;;;;;;;8.43;5.57;;;;;;;3.05;92.72;101911.66;7398820;19;20080;-67
2022/10/20 03:47:54;;;;;;;7.15;5.80;;;;;;;3.06;92.62;101907.38;7398522;19;20388;-67
2022/10/20 03:50:23;;;;;;;7.03;5.45;;;;;;;3.04;92.71;101901.25;7396374;19;20018;-67
2022/10/20 03:52:52;;;;;;;9.68;6.40;;;;;;;3.05;92.82;101906.47;7398520;19;20031;-67
2022/10/20 03:55:23;;;;;;;9.48;6.15;;;;;;;3.06;93.14;101907.38;7396444;19;20015;-67
2022/10/20 03:57:51;;;;;;;10.55;6.68;;;;;;;3.04;93.13;101917.69;7396968;19;20037;-67
2022/10/20 04:00:20;;;;;;;10.48;6.72;;;;;;;3.04;93.29;101912.50;7397457;19;20094;-67
2022/10/20 04:02:49;;;;;;;7.88;6.55;;;;;;;3.04;93.22;101917.69;7396412;19;20033;-67
2022/10/20 04:05:20;;;;;;;95.10;47.20;;;;;;;3.05;93.26;101914.25;7395456;19;20085;-67
2022/10/20 04:07:49;;;;;;;14.63;9.85;;;;;;;3.06;93.57;101915.16;7396221;19;20410;-67
2022/10/20 04:10:18;;;;;;;10.25;7.57;;;;;;;3.05;93.44;101909.06;7396578;19;20019;-67
2022/10/20 04:12:49;;;;;;;17.25;8.50;;;;;;;3.05;93.63;101914.25;7397544;19;20544;-67
2022/10/20 04:15:18;;;;;;;12.63;6.93;;;;;;;3.04;93.70;101907.31;7395649;19;20512;-67
2022/10/20 04:17:47;;;;;;;12.73;8.10;;;;;;;3.05;93.67;101913.38;7397654;19;20019;-67
2022/10/20 04:20:15;;;;;;;12.70;8.15;;;;;;;3.04;93.59;101907.31;7396555;19;20083;-68
2022/10/20 04:22:43;;;;;;;10.50;8.32;;;;;;;3.04;93.85;101907.31;7396428;19;20545;-67
2022/10/20 04:25:13;;;;;;;14.25;9.10;;;;;;;3.04;93.98;101899.53;7397633;19;20022;-68
2022/10/20 04:27:42;;;;;;;9.07;7.45;;;;;;;3.05;93.80;101897.84;7397494;19;20014;-67
2022/10/20 04:30:13;;;;;;;12.13;7.15;;;;;;;3.03;93.98;101881.34;7396568;19;20082;-68
2022/10/20 04:32:42;;;;;;;13.55;8.05;;;;;;;3.02;94.10;101883.06;7394851;19;20074;-68
2022/10/20 04:35:11;;;;;;;10.98;7.25;;;;;;;3.02;94.04;101877.88;7395135;19;20011;-68
2022/10/20 04:37:39;;;;;;;13.07;8.45;;;;;;;3.02;94.16;101883.06;7396441;19;20557;-67
2022/10/20 04:40:09;;;;;;;11.82;8.18;;;;;;;3.02;94.38;101879.59;7395873;19;20082;-67
2022/10/20 04:42:37;;;;;;;11.85;9.18;;;;;;;3.01;94.09;101875.22;7396100;19;20039;-67
2022/10/20 04:45:07;;;;;;;14.00;8.18;;;;;;;3.02;94.44;101874.41;7396475;19;20481;-67
2022/10/20 04:47:38;;;;;;;11.65;7.78;;;;;;;3.01;94.28;101865.75;7396264;19;20079;-68
2022/10/20 04:50:07;;;;;;;11.57;8.73;;;;;;;2.99;94.24;101870.00;7395784;19;20022;-68
2022/10/20 04:52:36;;;;;;;13.73;8.93;;;;;;;2.98;94.50;101865.66;7396081;19;20501;-68
2022/10/20 04:55:05;;;;;;;9.77;8.25;;;;;;;2.97;94.43;101860.44;7396459;19;20028;-67
2022/10/20 04:57:33;;;;;;;14.38;8.27;;;;;;;2.98;94.46;101857.00;7396033;19;20082;-68
2022/10/20 05:00:02;;;;;;;13.32;9.57;;;;;;;2.98;94.52;101844.03;7393664;19;20078;-67
2022/10/20 05:02:31;;;;;;;12.73;9.30;;;;;;;2.95;94.44;101834.47;7395037;19;20079;-66
2022/10/20 05:05:03;;;;;;;13.70;8.85;;;;;;;2.95;94.59;101842.25;7393834;19;20432;-68
2022/10/20 05:07:32;;;;;;;13.90;9.50;;;;;;;2.95;94.59;101841.38;7392833;19;20379;-66
2022/10/20 05:10:00;;;;;;;14.05;10.18;;;;;;;2.91;94.46;101841.28;7393610;19;20446;-68
2022/10/20 05:12:29;;;;;;;11.85;9.25;;;;;;;2.94;94.79;101837.88;7395212;19;20086;-68
2022/10/20 05:14:57;;;;;;;12.70;9.45;;;;;;;2.93;94.93;101836.13;7393889;19;20038;-67
2022/10/20 05:17:26;;;;;;;13.32;9.38;;;;;;;2.91;94.94;101833.50;7394248;19;20022;-67
2022/10/20 05:19:54;;;;;;;12.00;9.63;;;;;;;2.90;94.90;101831.75;7393908;19;20019;-68
2022/10/20 05:22:26;;;;;;;16.25;10.52;;;;;;;2.91;95.02;101832.63;7393732;19;20552;-67
2022/10/20 05:24:54;;;;;;;14.35;10.85;;;;;;;2.91;94.94;101822.28;7393512;19;20414;-68
2022/10/20 05:27:22;;;;;;;15.90;11.57;;;;;;;2.92;94.87;101821.44;7394913;19;20082;-68
2022/10/20 05:29:51;;;;;;;21.95;13.60;;;;;;;2.93;94.96;101825.75;7393411;19;20014;-68
2022/10/20 05:32:19;;;;;;;20.67;14.25;;;;;;;2.95;95.13;101823.22;7393662;19;20022;-68
2022/10/20 05:34:48;;;;;;;24.50;16.25;;;;;;;2.96;95.22;101831.03;7395230;19;20054;-68
2022/10/20 05:37:16;;;;;;;24.77;17.40;;;;;;;2.97;95.21;101832.81;7395080;19;20057;-68
2022/10/20 05:39:48;;;;;;;24.13;16.20;;;;;;;2.98;95.88;101837.13;7393212;19;20022;-68
2022/10/20 05:42:16;;;;;;;30.73;17.77;;;;;;;2.99;95.65;101836.28;7395123;19;20070;-67
2022/10/20 05:44:44;;;;;;;24.77;16.17;;;;;;;3.03;95.52;101842.44;7394074;19;20086;-68
2022/10/20 05:47:13;;;;;;;31.67;17.35;;;;;;;3.04;95.88;101839.88;7393376;19;20018;-68
2022/10/20 05:49:41;;;;;;;30.45;18.10;;;;;;;3.06;95.90;101838.22;7394890;19;20093;-70
2022/10/20 05:52:10;;;;;;;56.45;31.38;;;;;;;3.09;95.62;101840.03;7394919;19;20081;-68
2022/10/20 05:54:38;;;;;;;29.80;18.13;;;;;;;3.10;96.08;101842.66;7394774;19;20106;-68
2022/10/20 05:57:09;;;;;;;32.08;16.67;;;;;;;3.15;96.46;101849.69;7395153;19;20026;-69
2022/10/20 05:59:44;;;;;;;31.73;17.35;;;;;;;3.17;96.31;101840.22;7392129;19;20416;-68
2022/10/20 06:02:13;;;;;;;33.38;18.48;;;;;;;3.20;96.27;101853.28;7394454;19;20085;-68
2022/10/20 06:04:42;;;;;;;32.50;17.33;;;;;;;3.23;96.13;101853.34;7393921;19;20081;-69
2022/10/20 06:07:11;;;;;;;31.88;17.48;;;;;;;3.27;96.41;101857.78;7394171;19;20488;-69
2022/10/20 06:09:40;;;;;;;31.95;18.30;;;;;;;3.31;96.45;101857.03;7394079;19;20376;-67
2022/10/20 06:12:12;;;;;;;34.72;18.95;;;;;;;3.34;96.43;101854.50;7394051;19;20082;-69
2022/10/20 06:14:40;;;;;;;34.50;17.95;;;;;;;3.38;96.58;101856.34;7392585;19;20078;-69
2022/10/20 06:17:08;;;;;;;28.77;17.35;;;;;;;3.40;96.55;101851.22;7394188;19;20083;-69
2022/10/20 06:19:37;;;;;;;31.30;17.85;;;;;;;3.45;96.46;101851.31;7393629;19;20082;-69
2022/10/20 06:22:05;;;;;;;31.90;18.55;;;;;;;3.47;96.39;101849.66;7394358;19;20022;-68
2022/10/20 06:24:34;;;;;;;36.33;19.80;;;;;;;3.50;97.03;101844.53;7393712;19;20022;-69
2022/10/20 06:27:02;;;;;;;32.95;17.90;;;;;;;3.53;96.66;101842.88;7393788;19;20423;-69
2022/10/20 06:29:33;;;;;;;33.10;18.58;;;;;;;3.58;96.62;101840.41;7395241;19;20077;-71
2022/10/20 06:32:02;;;;;;;32.45;19.10;;;;;;;3.61;96.78;101837.00;7401145;19;20085;-70
2022/10/20 06:34:30;;;;;;;37.00;19.60;;;;;;;3.66;96.92;101836.28;7397920;19;20484;-71
2022/10/20 06:36:59;;;;;;;31.02;18.50;;;;;;;3.68;96.93;101832.00;7398062;19;20086;-70
2022/10/20 06:39:27;;;;;;;32.53;18.38;;;;;;;3.74;97.09;101834.75;7400336;19;20079;-72
2022/10/20 06:41:56;;;;;;;27.60;16.98;;;;;;;3.79;96.92;101836.56;7400667;19;20086;-71
2022/10/20 06:44:26;;;;;;;29.45;18.55;;;;;;;3.83;97.11;101834.09;7400076;19;20545;-71
2022/10/20 06:46:57;;;;;;;29.30;17.80;;;;;;;3.87;97.17;101835.06;7400537;19;20056;-71
2022/10/20 06:49:25;;;;;;;28.50;17.92;;;;;;;3.92;97.12;101836.03;7400086;19;20430;-71
2022/10/20 06:52:01;;;;;;;28.33;17.38;;;;;;;3.96;97.14;101824.88;7400510;19;20097;-66
2022/10/20 06:54:29;;;;;;;31.35;17.73;;;;;;;4.01;97.15;101838.84;7398987;19;20031;-71
2022/10/20 06:56:58;;;;;;;27.17;16.55;;;;;;;4.03;97.24;101837.16;7400008;19;20523;-70
2022/10/20 06:59:26;;;;;;;29.40;17.50;;;;;;;4.07;97.08;101845.91;7399181;19;20014;-71
2022/10/20 07:01:57;;;;;;;29.23;16.75;;;;;;;4.10;96.83;101853.75;7400375;19;20078;-70
2022/10/20 07:04:26;;;;;;;24.40;16.90;;;;;;;4.14;97.13;101852.09;7399973;19;20531;-71
2022/10/20 07:06:54;;;;;;;28.65;18.05;;;;;;;4.16;97.06;101847.84;7399954;19;20014;-71
2022/10/20 07:09:23;;;;;;;22.00;16.45;;;;;;;4.19;97.13;101853.09;7399967;19;20090;-70
2022/10/20 07:11:54;;;;;;;26.23;16.98;;;;;;;4.19;96.88;101846.16;7397488;19;20039;-72
2022/10/20 07:14:23;;;;;;;24.40;16.77;;;;;;;4.26;97.28;101843.69;7398192;19;20420;-71
2022/10/20 07:16:51;;;;;;;23.35;16.88;;;;;;;4.28;97.09;101845.47;7400130;19;20010;-72
2022/10/20 07:19:23;;;;;;;23.77;15.38;;;;;;;4.30;97.17;101832.56;7400250;19;20040;-71
2022/10/20 07:21:51;;;;;;;23.58;15.57;;;;;;;4.33;97.17;101833.47;7399818;19;20074;-71
2022/10/20 07:24:20;;;;;;;30.02;19.25;;;;;;;4.36;96.97;101833.53;7399122;19;20036;-70
2022/10/20 07:26:48;;;;;;;25.70;15.85;;;;;;;4.38;97.00;101837.03;7399701;19;20095;-72
2022/10/20 07:29:18;;;;;;;22.35;15.88;;;;;;;4.40;96.94;101845.75;7399617;19;20014;-70
2022/10/20 07:31:49;;;;;;;22.45;14.88;;;;;;;4.45;96.86;101844.97;7396558;19;20365;-71
2022/10/20 07:34:22;;;;;;;23.70;16.10;;;;;;;4.47;96.79;101843.28;7397578;19;20071;-70
2022/10/20 07:36:53;;;;;;;21.70;15.55;;;;;;;4.51;96.91;101842.50;7398925;19;20014;-70
2022/10/20 07:39:21;;;;;;;22.58;15.38;;;;;;;4.52;96.94;101836.47;7398301;19;20165;-70
2022/10/20 07:41:50;;;;;;;23.90;15.50;;;;;;;4.55;96.64;101842.59;7398978;19;20018;-71
2022/10/20 07:44:19;;;;;;;21.88;14.40;;;;;;;4.58;96.95;101839.19;7398919;19;20014;-71
2022/10/20 07:46:47;;;;;;;23.30;14.75;;;;;;;4.63;96.86;101836.69;7398406;19;20018;-70
2022/10/20 07:49:16;;;;;;;21.20;14.60;;;;;;;4.66;96.65;101837.63;7398465;19;20027;-70
2022/10/20 07:51:44;;;;;;;23.33;16.13;;;;;;;4.69;96.90;101829.88;7395981;19;20511;-71
2022/10/20 07:54:15;;;;;;;21.75;14.95;;;;;;;4.75;97.08;101829.13;7397898;19;20090;-70
2022/10/20 07:56:45;;;;;;;19.65;14.00;;;;;;;4.79;96.85;101824.84;7399127;19;20029;-70
2022/10/20 07:59:15;;;;;;;22.33;15.18;;;;;;;4.83;97.09;101826.69;7397658;19;20526;-70
2022/10/20 08:01:43;;;;;;;22.38;14.77;;;;;;;4.88;96.86;101825.06;7396076;19;20010;-71
2022/10/20 08:04:12;;;;;;;24.25;15.60;;;;;;;4.95;96.91;101816.50;7398451;19;20018;-71
2022/10/20 08:06:40;;;;;;;19.95;14.65;;;;;;;5.00;96.92;101822.66;7397294;19;20082;-70
2022/10/20 08:09:09;;;;;;;21.08;13.93;;;;;;;5.07;96.98;101813.28;7397350;19;20078;-70
2022/10/20 08:11:40;;;;;;;20.77;14.43;;;;;;;5.14;97.29;101816.84;7395560;19;20028;-70
2022/10/20 08:14:09;;;;;;;27.67;18.17;;;;;;;5.22;97.20;101810.06;7396912;19;20036;-70
2022/10/20 08:16:37;;;;;;;18.67;13.57;;;;;;;5.30;97.26;101805.00;7397737;19;20425;-71
2022/10/20 08:19:06;;;;;;;19.85;13.90;;;;;;;5.38;97.04;101795.56;7395749;19;20078;-72
2022/10/20 08:21:41;;;;;;;20.60;14.00;;;;;;;5.46;97.13;101787.88;7395112;19;20443;-71
2022/10/20 08:24:10;;;;;;;20.27;13.25;;;;;;;5.53;96.95;101784.53;7397600;19;20081;-70
2022/10/20 08:26:41;;;;;;;18.70;12.82;;;;;;;5.62;96.90;101789.03;7397231;19;20375;-71
2022/10/20 08:29:11;;;;;;;17.85;12.82;;;;;;;5.71;96.90;101783.94;7396438;19;20015;-71
2022/10/20 08:31:39;;;;;;;16.00;11.98;;;;;;;5.78;96.41;101783.19;7395466;19;20363;-71
2022/10/20 08:34:08;;;;;;;15.43;12.63;;;;;;;5.87;96.50;101787.66;7396243;19;20120;-71
2022/10/20 08:36:37;;;;;;;19.60;13.18;;;;;;;5.96;96.53;101784.31;7394905;19;20021;-71
2022/10/20 08:39:06;;;;;;;12.93;11.40;;;;;;;6.05;96.23;101779.25;7397043;19;20026;-70
2022/10/20 08:41:39;;;;;;;15.45;11.43;;;;;;;6.14;96.31;101779.41;7395999;19;20078;-71
2022/10/20 08:44:10;;;;;;;14.65;11.90;;;;;;;6.25;95.89;101773.44;7396687;19;20031;-71
2022/10/20 08:46:41;;;;;;;15.30;11.70;;;;;;;6.33;95.74;101767.47;7396629;19;20031;-70
2022/10/20 08:49:23;;;;;;;16.63;11.18;;;;;;;6.45;96.04;101768.47;7397328;19;20021;-72
2022/10/20 08:51:52;;;;;;;18.50;11.52;;;;;;;6.56;95.76;101773.78;7395870;19;20035;-71
2022/10/20 08:54:20;;;;;;;14.80;11.15;;;;;;;6.65;95.76;101766.09;7396100;19;20077;-70
2022/10/20 08:56:49;;;;;;;14.85;10.75;;;;;;;6.76;95.55;101761.88;7394794;19;20032;-71
2022/10/20 08:59:27;;;;;;;14.73;10.50;;;;;;;6.89;95.37;101760.25;7396030;19;20384;-71
2022/10/20 09:01:57;;;;;;;11.38;9.55;;;;;;;7.01;94.78;101762.09;7394591;19;20011;-71
2022/10/20 09:04:31;;;;;;;12.73;9.05;;;;;;;7.15;94.18;101743.94;7396836;19;20032;-71
2022/10/20 09:07:04;;;;;;;11.38;8.23;;;;;;;7.29;93.32;101744.97;7396401;19;20449;-72
2022/10/20 09:09:34;;;;;;;10.95;8.27;;;;;;;7.43;92.81;101736.34;7395945;19;20010;-71
2022/10/20 09:12:08;;;;;;;12.02;7.93;;;;;;;7.56;91.79;101740.78;7395810;19;20505;-71
2022/10/20 09:14:40;;;;;;;9.10;7.47;;;;;;;7.69;91.23;101733.91;7394944;19;20358;-71
2022/10/20 09:17:16;;;;;;;10.77;7.78;;;;;;;7.81;89.38;101728.75;7395800;19;20022;-71
2022/10/20 09:19:48;;;;;;;13.07;8.20;;;;;;;7.95;89.43;101720.97;7395033;19;20032;-71
2022/10/20 09:22:18;;;;;;;9.32;6.88;;;;;;;8.07;87.97;101716.69;7395977;19;20035;-71
2022/10/20 09:24:47;;;;;;;9.73;6.88;;;;;;;8.17;87.43;101710.63;7395727;19;20085;-71
2022/10/20 09:27:25;;;;;;;6.90;5.82;;;;;;;8.27;86.87;101712.41;7395081;19;20414;-71
2022/10/20 09:29:56;;;;;;;10.13;5.75;;;;;;;8.39;86.27;101703.72;7395137;19;20026;-71
2022/10/20 09:32:34;;;;;;;8.07;5.68;;;;;;;8.48;83.34;101705.53;7394741;19;20532;-71
2022/10/20 09:35:31;;;;;;;6.93;5.50;;;;;;;8.59;83.30;101708.16;7393856;19;20011;-71
2022/10/20 09:38:04;;;;;;;7.75;5.97;;;;;;;8.68;84.28;101710.81;7393410;19;20094;-71
2022/10/20 09:40:33;;;;;;;6.20;5.28;;;;;;;8.77;84.25;101696.84;7393840;19;20547;-71
2022/10/20 09:43:08;;;;;;;10.77;5.65;;;;;;;8.84;83.85;101703.81;7393152;19;20022;-71
2022/10/20 09:45:51;;;;;;;6.70;5.30;;;;;;;8.95;84.28;101703.84;7395626;19;20044;-71
2022/10/20 09:48:24;;;;;;;7.85;5.25;;;;;;;9.02;83.45;101694.25;7394715;19;20426;-70
2022/10/20 09:50:55;;;;;;;6.53;4.95;;;;;;;9.10;82.55;101697.75;7393821;19;20010;-70
2022/10/20 09:53:28;;;;;;;6.88;5.25;;;;;;;9.16;82.06;101684.63;7395618;19;20014;-70
2022/10/20 09:55:57;;;;;;;5.78;4.88;;;;;;;9.24;80.42;101690.75;7393385;19;20431;-70
2022/10/20 09:58:29;;;;;;;4.93;4.38;;;;;;;9.33;81.75;101681.16;7395023;19;20015;-70
2022/10/20 10:01:04;;;;;;;8.13;4.80;;;;;;;9.40;81.69;101677.63;7392760;19;20027;-71
2022/10/20 10:03:40;;;;;;;8.73;5.93;;;;;;;9.49;80.91;101671.50;7396428;19;20031;-70
2022/10/20 10:06:33;;;;;;;6.75;4.82;;;;;;;9.56;78.66;101660.97;7402232;19;20014;-70
2022/10/20 10:09:03;;;;;;;6.63;4.32;;;;;;;9.66;80.18;101658.34;7399757;19;20014;-71
2022/10/20 10:11:35;;;;;;;8.60;5.45;;;;;;;9.73;80.26;101665.28;7399520;19;20035;-71
2022/10/20 10:14:06;;;;;;;7.68;4.30;;;;;;;9.81;80.18;101662.66;7399717;19;20028;-72
2022/10/20 10:16:44;;;;;;;5.72;4.20;;;;;;;9.89;79.25;101656.50;7402532;19;20481;-71
2022/10/20 10:19:19;;;;;;;6.68;4.07;;;;;;;9.96;78.86;101652.13;7402925;19;20074;-71
2022/10/20 10:21:53;;;;;;;5.80;4.00;;;;;;;10.05;79.04;101651.22;7402441;19;20452;-71
2022/10/20 10:24:46;;;;;;;5.75;3.72;;;;;;;10.10;77.56;101642.41;7398660;19;20469;-71
2022/10/20 10:27:23;;;;;;;6.75;4.20;;;;;;;10.18;76.32;101631.88;7402382;19;20017;-71
2022/10/20 10:29:51;;;;;;;3.88;3.47;;;;;;;10.25;77.49;101623.13;7398243;19;20010;-71
2022/10/20 10:32:26;;;;;;;6.70;3.90;;;;;;;10.32;77.51;101636.19;7398713;19;20095;-71
2022/10/20 10:35:09;;;;;;;5.25;3.70;;;;;;;10.37;76.72;101634.44;7399028;19;20019;-72
2022/10/20 10:37:39;;;;;;;5.20;3.65;;;;;;;10.37;76.60;101621.31;7401652;19;20035;-72
2022/10/20 10:40:17;;;;;;;13.55;4.30;;;;;;;10.48;75.99;101624.75;7400217;19;20018;-71
2022/10/20 10:43:07;;;;;;;4.43;3.60;;;;;;;10.55;76.37;101621.19;7401828;19;20422;-70
2022/10/20 10:45:50;;;;;;;5.28;3.60;;;;;;;10.61;74.75;101622.88;7400743;19;20503;-71
2022/10/20 10:48:51;;;;;;;4.28;3.58;;;;;;;10.67;73.50;101609.72;7401573;19;20070;-71
2022/10/20 10:51:35;;;;;;;8.98;3.88;;;;;;;10.76;73.79;101595.66;7398378;19;20015;-72
2022/10/20 10:54:20;;;;;;;8.07;3.50;;;;;;;10.84;74.17;101585.06;7401602;19;20014;-71
2022/10/20 10:56:51;;;;;;;3.28;2.90;;;;;;;10.92;74.26;101586.75;7400389;19;20520;-71
2022/10/20 10:59:39;;;;;;;3.75;2.92;;;;;;;11.00;73.87;101580.56;7399749;19;20082;-70
2022/10/20 11:02:57;;;;;;;3.63;3.10;;;;;;;11.09;70.79;101564.69;7397410;19;20070;-70
2022/10/20 11:05:35;;;;;;;4.65;3.75;;;;;;;11.19;70.95;101573.34;7401018;19;20014;-71
2022/10/20 11:08:19;;;;;;;5.15;3.13;;;;;;;11.28;68.41;101570.63;7402056;19;20074;-70
2022/10/20 11:10:57;;;;;;;4.88;2.80;;;;;;;11.35;69.39;101579.31;7398162;19;20031;-71
2022/10/20 11:13:34;;;;;;;5.10;3.20;;;;;;;11.43;69.26;101569.56;7400354;19;20346;-71
2022/10/20 11:16:13;;;;;;;3.38;2.83;;;;;;;11.49;69.89;101564.25;7396862;19;20028;-71
2022/10/20 11:19:02;;;;;;;4.20;2.55;;;;;;;11.56;69.41;101568.53;7399718;19;20035;-71
2022/10/20 11:21:39;;;;;;;3.60;2.60;;;;;;;11.64;69.34;101557.91;7396770;19;20031;-71
2022/10/20 11:24:30;;;;;;;3.35;2.72;;;;;;;11.72;68.79;101552.56;7398299;19;20023;-71
2022/10/20 11:27:04;;;;;;;3.78;2.78;;;;;;;11.80;69.54;101539.31;7399169;19;20031;-72
2022/10/20 11:29:36;;;;;;;3.13;2.80;;;;;;;11.87;69.56;101546.22;7398475;19;20549;-69
2022/10/20 11:32:12;;;;;;;6.47;2.38;;;;;;;11.94;68.28;101533.84;7398696;19;20014;-71
2022/10/20 11:34:51;;;;;;;4.60;2.17;;;;;;;11.97;65.98;101529.44;7396614;19;20042;-71
2022/10/20 11:37:26;;;;;;;4.10;2.80;;;;;;;12.04;67.62;101532.84;7398967;19;20073;-71
2022/10/20 11:40:04;;;;;;;4.55;2.70;;;;;;;12.09;66.75;101538.03;7398161;19;20062;-71
2022/10/20 11:42:41;;;;;;;3.03;2.33;;;;;;;12.14;66.72;101534.44;7399562;19;20078;-71
2022/10/20 11:45:27;;;;;;;4.18;2.63;;;;;;;12.21;67.09;101543.13;7398789;19;20018;-71
2022/10/20 11:48:03;;;;;;;6.97;2.95;;;;;;;12.25;66.23;101525.53;7396723;19;20033;-70
2022/10/20 11:50:33;;;;;;;4.22;3.45;;;;;;;12.33;66.62;101523.63;7395724;19;20512;-70